Airport View

Enter AWOS ICAO identifier for current METAR.

ex. KFNL

KLNP 200000Z AUTO 17006KT 10SM CLR 18/08 A3022 RMK AO2 LTG DSNT W

19 Oct 2020 23:51

Frequency: 118.6

Phone: 276-328-3727

Other Area AWOS: KVJI - KTRI - KPBX - KJFZ

TAF KTRI 191720Z 1918/2018 VRB03KT P6SM SCT150 SCT250